Time;durP1;ratioP1;P1;durP2;ratioP2;P2;SDS_P1;SDS_P2;PMS_P1;PMS_P2;Temp;Humidity;BMP_temperature;BMP_pressure;BME280_temperature;BME280_humidity;BME280_pressure;Samples;Min_cycle;Max_cycle;Signal;HPM_P1;HPM_P2
2022/02/18 00:01:01;;;;;;;5.28;2.00;;;;;;;7.32;55.65;92546.84;2048125;70;20150;-70
2022/02/18 00:03:28;;;;;;;4.57;1.92;;;;;;;7.38;56.12;92550.81;2048478;70;20135;-70
2022/02/18 00:05:54;;;;;;;6.30;2.20;;;;;;;7.37;55.81;92531.78;2048377;70;20555;-76
2022/02/18 00:08:20;;;;;;;6.30;1.95;;;;;;;7.27;56.29;92528.28;2048220;70;20180;-74
2022/02/18 00:10:47;;;;;;;4.70;2.08;;;;;;;7.11;56.64;92519.50;2048087;70;20174;-73
2022/02/18 00:13:14;;;;;;;6.13;2.20;;;;;;;7.41;55.46;92511.75;2048249;70;20231;-70
2022/02/18 00:15:40;;;;;;;4.38;1.70;;;;;;;7.42;55.20;92513.94;2048214;70;20174;-69
2022/02/18 00:18:06;;;;;;;5.70;1.92;;;;;;;7.39;55.67;92510.28;2047832;70;20146;-71
2022/02/18 00:20:34;;;;;;;5.18;1.70;;;;;;;7.39;55.29;92504.69;2048377;70;20539;-70
2022/02/18 00:23:01;;;;;;;5.07;1.77;;;;;;;6.77;57.47;92520.59;2048323;70;20495;-69
2022/02/18 00:25:28;;;;;;;4.63;1.90;;;;;;;6.80;57.44;92536.94;2048226;70;20590;-70
2022/02/18 00:27:59;;;;;;;10.23;2.17;;;;;;;7.32;55.54;92530.03;2050398;70;20285;-76
2022/02/18 00:30:28;;;;;;;7.13;1.80;;;;;;;7.39;54.86;92537.56;2050458;70;20150;-69
2022/02/18 00:32:54;;;;;;;7.15;1.70;;;;;;;7.37;54.67;92532.53;2048045;70;20141;-69
2022/02/18 00:35:22;;;;;;;3.63;1.50;;;;;;;7.52;54.18;92531.47;2050300;70;20352;-69
2022/02/18 00:37:48;;;;;;;6.00;1.90;;;;;;;7.52;54.01;92541.94;2044819;70;20606;-70
2022/02/18 00:40:14;;;;;;;5.88;1.92;;;;;;;7.41;54.31;92548.88;2047705;70;20237;-70
2022/02/18 00:42:41;;;;;;;5.53;1.50;;;;;;;7.31;54.25;92536.97;2048154;70;20147;-71
2022/02/18 00:45:10;;;;;;;6.15;1.48;;;;;;;7.45;54.03;92526.03;2048139;70;20218;-70
2022/02/18 00:47:36;;;;;;;6.15;2.00;;;;;;;7.39;54.28;92517.94;2047522;70;20154;-69
2022/02/18 00:50:03;;;;;;;9.30;2.10;;;;;;;7.17;54.79;92522.72;2048207;70;20158;-69
2022/02/18 00:52:28;;;;;;;3.53;1.50;;;;;;;7.25;54.37;92523.28;2047708;70;20161;-74
2022/02/18 00:54:54;;;;;;;4.97;1.90;;;;;;;7.17;55.40;92530.38;2048344;70;20146;-78
2022/02/18 00:57:19;;;;;;;6.82;1.60;;;;;;;7.34;54.22;92522.53;2048341;70;20150;-71
2022/02/18 00:59:48;;;;;;;3.45;1.45;;;;;;;7.43;53.80;92518.22;2048348;70;20626;-72
2022/02/18 01:02:14;;;;;;;7.40;1.40;;;;;;;7.37;53.76;92512.94;2048235;70;20148;-70
2022/02/18 01:04:40;;;;;;;4.90;1.48;;;;;;;7.52;53.36;92502.72;2050472;70;20139;-70
2022/02/18 01:07:05;;;;;;;5.72;1.20;;;;;;;7.23;55.09;92495.13;2048250;70;20186;-69
2022/02/18 01:09:32;;;;;;;4.30;1.40;;;;;;;6.66;56.60;92507.22;2048397;70;20242;-70
2022/02/18 01:11:57;;;;;;;6.78;2.08;;;;;;;7.21;54.62;92511.81;2050360;70;20249;-70
2022/02/18 01:14:24;;;;;;;6.00;1.40;;;;;;;7.18;55.20;92520.66;2048234;70;20157;-71
2022/02/18 01:16:51;;;;;;;7.43;1.50;;;;;;;7.21;55.00;92523.00;2050104;70;20169;-71
2022/02/18 01:19:17;;;;;;;5.32;1.40;;;;;;;7.19;54.85;92517.25;2048031;70;20159;-71
2022/02/18 01:21:43;;;;;;;8.05;1.50;;;;;;;7.19;54.54;92517.25;2044840;70;20147;-70
2022/02/18 01:24:09;;;;;;;7.05;1.50;;;;;;;7.21;54.72;92519.47;2047684;70;20265;-71
2022/02/18 01:26:35;;;;;;;3.67;1.27;;;;;;;7.26;54.20;92516.38;2044885;70;20188;-70
2022/02/18 01:29:01;;;;;;;5.00;1.55;;;;;;;7.03;54.68;92516.13;2050013;70;20241;-72
2022/02/18 01:31:28;;;;;;;4.97;1.38;;;;;;;7.17;54.49;92522.00;2048072;70;20174;-73
2022/02/18 01:33:55;;;;;;;4.95;1.42;;;;;;;6.99;55.25;92515.84;2048276;70;20142;-74
2022/02/18 01:36:26;;;;;;;4.78;1.33;;;;;;;7.16;55.02;92500.94;2051013;70;20147;-73
2022/02/18 01:38:53;;;;;;;6.30;1.38;;;;;;;7.13;54.82;92486.03;2053508;70;20705;-71
2022/02/18 01:41:19;;;;;;;5.78;1.45;;;;;;;7.05;54.85;92497.41;2048223;70;20157;-71
2022/02/18 01:43:53;;;;;;;6.32;1.23;;;;;;;7.28;53.81;92496.16;2050837;70;20614;-70
2022/02/18 01:46:20;;;;;;;11.80;1.33;;;;;;;7.29;53.32;92495.59;2051289;70;20169;-70
2022/02/18 01:48:46;;;;;;;5.03;1.40;;;;;;;7.10;54.70;92496.38;2051398;70;20149;-71
2022/02/18 01:51:12;;;;;;;4.10;1.65;;;;;;;7.10;54.20;92490.03;2048215;70;20146;-71
2022/02/18 01:53:38;;;;;;;5.38;1.75;;;;;;;7.02;55.20;92487.41;2048176;70;20173;-70
2022/02/18 01:56:04;;;;;;;4.30;1.75;;;;;;;6.97;54.73;92496.13;2051419;70;20145;-71
2022/02/18 01:58:30;;;;;;;5.80;1.85;;;;;;;6.93;54.92;92496.56;2050898;70;20212;-70
2022/02/18 02:00:57;;;;;;;7.65;1.73;;;;;;;7.05;54.83;92493.88;2051189;70;20166;-74
2022/02/18 02:03:24;;;;;;;10.13;1.90;;;;;;;6.87;55.34;92508.06;2051518;70;20319;-74
2022/02/18 02:05:51;;;;;;;3.63;1.50;;;;;;;6.82;55.03;92527.94;2051269;70;20157;-71
2022/02/18 02:08:18;;;;;;;5.00;1.98;;;;;;;6.73;55.79;92526.63;2053609;70;20168;-75
2022/02/18 02:10:47;;;;;;;6.30;1.73;;;;;;;6.84;55.48;92525.31;2053509;70;20572;-72
2022/02/18 02:13:39;;;;;;;14.02;1.98;;;;;;;6.80;55.73;92525.75;2050773;70;20331;-73
2022/02/18 02:16:12;;;;;;;12.45;1.90;;;;;;;6.95;55.15;92523.94;2050760;70;20142;-74
2022/02/18 02:18:38;;;;;;;9.15;2.33;;;;;;;6.85;55.60;92535.91;2048081;70;20173;-73
2022/02/18 02:21:03;;;;;;;8.25;1.75;;;;;;;7.01;54.64;92527.16;2051284;70;20264;-72
2022/02/18 02:23:35;;;;;;;6.45;1.42;;;;;;;7.22;53.43;92520.94;2045368;70;20141;-71
2022/02/18 02:26:01;;;;;;;7.63;1.77;;;;;;;6.91;54.55;92520.84;2047965;70;20150;-71
2022/02/18 02:28:30;;;;;;;5.35;1.50;;;;;;;6.60;56.53;92519.44;2047986;70;20147;-71
2022/02/18 02:30:56;;;;;;;6.28;1.95;;;;;;;6.71;55.90;92514.56;2047768;70;20492;-71
2022/02/18 02:33:22;;;;;;;7.95;1.95;;;;;;;6.90;55.38;92525.72;2051304;70;20621;-70
2022/02/18 02:35:49;;;;;;;9.60;1.80;;;;;;;6.87;55.26;92516.47;2045275;70;20263;-71
2022/02/18 02:38:16;;;;;;;7.95;1.75;;;;;;;6.97;54.36;92494.06;2045224;70;20583;-71
2022/02/18 02:40:44;;;;;;;4.72;1.30;;;;;;;7.01;54.99;92482.38;2051242;70;20150;-71
2022/02/18 02:43:09;;;;;;;7.13;1.92;;;;;;;6.95;54.55;92479.91;2051242;70;20156;-72
2022/02/18 02:45:35;;;;;;;5.18;1.85;;;;;;;6.70;54.80;92480.25;2050653;70;20637;-71
2022/02/18 02:48:01;;;;;;;5.05;1.38;;;;;;;6.78;54.49;92475.25;2047870;70;20138;-72
2022/02/18 02:51:04;;;;;;;4.30;1.13;;;;;;;7.04;53.36;92461.63;2046900;70;20163;-72
2022/02/18 02:53:35;;;;;;;20.45;8.00;;;;;;;6.35;56.44;92468.66;2047809;70;20146;-71
2022/02/18 02:56:01;;;;;;;11.68;3.50;;;;;;;6.65;55.60;92475.72;2051612;70;20153;-72
2022/02/18 02:58:27;;;;;;;8.52;2.92;;;;;;;6.87;54.34;92473.72;2051172;70;20147;-73
2022/02/18 03:00:53;;;;;;;8.63;2.28;;;;;;;6.60;54.42;92469.09;2048383;70;20173;-76
2022/02/18 03:03:42;;;;;;;7.32;2.80;;;;;;;6.56;55.70;92487.63;2051077;70;20134;-73
2022/02/18 03:06:08;;;;;;;7.13;3.00;;;;;;;6.98;53.20;92475.94;2048395;70;20161;-73
2022/02/18 03:08:35;;;;;;;10.65;2.33;;;;;;;6.91;53.44;92484.47;2048415;70;20150;-71
2022/02/18 03:11:17;;;;;;;6.80;3.10;;;;;;;6.22;55.87;92478.22;2048274;70;20142;-75
2022/02/18 03:14:18;;;;;;;11.13;2.90;;;;;;;6.39;55.18;92468.22;2043241;70;20226;-72
2022/02/18 03:16:55;;;;;;;7.82;2.85;;;;;;;6.39;54.72;92465.44;2047224;70;20192;-72
2022/02/18 03:19:21;;;;;;;7.40;2.50;;;;;;;6.65;54.05;92470.13;2051730;70;20159;-76
2022/02/18 03:21:51;;;;;;;5.85;1.30;;;;;;;6.81;52.96;92470.50;2051771;70;20158;-72
2022/02/18 03:24:19;;;;;;;5.60;1.30;;;;;;;6.43;53.46;92476.91;2045702;70;20718;-75
2022/02/18 03:26:49;;;;;;;6.80;1.75;;;;;;;6.30;54.68;92480.88;2051098;70;20181;-73
2022/02/18 03:29:15;;;;;;;6.03;1.40;;;;;;;6.26;54.70;92484.09;2051247;70;20146;-72
2022/02/18 03:31:54;;;;;;;6.05;1.48;;;;;;;6.36;54.56;92478.50;2048181;70;20157;-72
2022/02/18 03:34:21;;;;;;;7.05;1.65;;;;;;;6.04;54.92;92486.00;2050650;70;20150;-75
2022/02/18 03:36:47;;;;;;;4.32;1.30;;;;;;;6.12;55.14;92494.25;2051173;70;20606;-72
2022/02/18 03:39:14;;;;;;;9.20;1.70;;;;;;;6.01;55.54;92484.41;2051208;70;20613;-72
2022/02/18 03:41:40;;;;;;;9.40;1.50;;;;;;;6.08;54.72;92472.31;2051370;70;20153;-73
2022/02/18 03:44:06;;;;;;;4.13;1.27;;;;;;;6.17;54.23;92473.66;2051042;70;20551;-73
2022/02/18 03:46:40;;;;;;;4.95;1.10;;;;;;;6.28;53.60;92461.16;2047707;70;20154;-72
2022/02/18 03:49:06;;;;;;;5.47;1.20;;;;;;;6.17;53.57;92458.94;2047821;70;20170;-73
2022/02/18 03:51:32;;;;;;;7.85;1.92;;;;;;;5.57;56.55;92465.75;2047866;70;20628;-72
2022/02/18 03:53:58;;;;;;;9.55;2.42;;;;;;;5.81;55.68;92475.22;2050507;70;20225;-72
2022/02/18 03:56:23;;;;;;;7.40;1.60;;;;;;;5.84;55.15;92479.63;2050643;70;20249;-73
2022/02/18 03:58:53;;;;;;;6.72;2.03;;;;;;;5.85;54.91;92491.53;2050649;70;20642;-73
2022/02/18 04:01:20;;;;;;;5.15;1.60;;;;;;;5.90;54.46;92487.72;2047053;70;20193;-73
2022/02/18 04:03:46;;;;;;;6.93;3.00;;;;;;;5.92;54.68;92493.50;2047826;70;20234;-74
2022/02/18 04:06:47;;;;;;;6.70;1.65;;;;;;;5.89;54.07;92488.31;2046418;70;20257;-77
2022/02/18 04:09:21;;;;;;;7.25;1.58;;;;;;;5.73;54.56;92487.84;2046634;70;20166;-73
2022/02/18 04:11:54;;;;;;;4.35;1.98;;;;;;;5.58;55.54;92483.25;2047301;70;20602;-74
2022/02/18 04:14:23;;;;;;;8.98;3.72;;;;;;;5.45;55.79;92478.81;2049891;70;20627;-73
2022/02/18 04:16:59;;;;;;;8.15;3.15;;;;;;;5.31;56.51;92488.88;2049890;70;20245;-73
2022/02/18 04:19:26;;;;;;;7.63;3.30;;;;;;;5.36;56.67;92490.69;2049991;70;20151;-74
2022/02/18 04:21:54;;;;;;;7.75;3.03;;;;;;;5.35;55.95;92484.34;2047259;70;20786;-73
2022/02/18 04:24:35;;;;;;;5.03;1.80;;;;;;;5.54;55.52;92458.56;2047315;70;20682;-73
2022/02/18 04:27:02;;;;;;;7.55;1.90;;;;;;;5.00;56.91;92480.25;2047839;70;20871;-73
2022/02/18 04:29:28;;;;;;;4.72;1.70;;;;;;;4.77;58.40;92481.31;2047895;70;20216;-73
2022/02/18 04:31:54;;;;;;;5.18;1.60;;;;;;;4.95;57.94;92486.81;2047799;70;20491;-72
2022/02/18 04:34:19;;;;;;;7.65;1.95;;;;;;;5.13;57.55;92493.81;2047853;70;20652;-72
2022/02/18 04:36:45;;;;;;;6.22;1.88;;;;;;;5.14;56.58;92486.19;2047648;70;20157;-73
2022/02/18 04:39:10;;;;;;;10.32;2.45;;;;;;;5.20;56.70;92484.59;2047416;70;20249;-73
2022/02/18 04:41:38;;;;;;;7.30;2.42;;;;;;;5.06;57.17;92498.19;2047741;70;20174;-73
2022/02/18 04:44:06;;;;;;;7.43;2.17;;;;;;;4.98;57.19;92494.78;2047862;70;20158;-73
2022/02/18 04:46:32;;;;;;;7.15;2.10;;;;;;;5.04;57.42;92486.88;2047741;70;20170;-71
2022/02/18 04:48:58;;;;;;;8.10;2.30;;;;;;;5.08;56.89;92489.97;2047820;70;20182;-72
2022/02/18 04:51:24;;;;;;;7.15;2.10;;;;;;;4.95;57.45;92493.16;2047793;70;20159;-73
2022/02/18 04:53:50;;;;;;;7.35;2.38;;;;;;;4.97;57.40;92490.50;2047834;70;20489;-73
2022/02/18 04:56:15;;;;;;;7.85;2.22;;;;;;;4.76;58.34;92482.63;2047760;70;20146;-72
2022/02/18 04:58:41;;;;;;;7.15;2.00;;;;;;;4.63;58.47;92471.09;2047811;70;20153;-74
2022/02/18 05:01:11;;;;;;;7.22;2.00;;;;;;;4.73;58.55;92474.69;2046975;70;20155;-73
2022/02/18 05:03:38;;;;;;;8.60;2.47;;;;;;;4.82;57.71;92477.53;2047768;70;20147;-73
2022/02/18 05:06:03;;;;;;;8.48;2.38;;;;;;;5.04;56.55;92486.13;2047795;70;20612;-72
2022/02/18 05:08:31;;;;;;;7.88;2.05;;;;;;;5.09;56.57;92488.69;2047741;70;20181;-72
2022/02/18 05:10:57;;;;;;;6.10;2.15;;;;;;;4.95;57.55;92481.25;2047813;70;20151;-72
2022/02/18 05:13:26;;;;;;;5.68;1.70;;;;;;;4.87;57.32;92489.72;2047298;70;20225;-73
2022/02/18 05:15:53;;;;;;;8.15;2.35;;;;;;;4.70;58.08;92496.09;2047823;70;20647;-73
2022/02/18 05:18:19;;;;;;;10.52;3.67;;;;;;;4.49;59.29;92496.56;2046626;70;20557;-73
2022/02/18 05:20:47;;;;;;;6.35;3.10;;;;;;;4.53;58.58;92490.53;2047772;70;20147;-71
2022/02/18 05:23:14;;;;;;;11.80;3.50;;;;;;;4.50;59.51;92495.25;2044506;70;20158;-71
2022/02/18 05:25:40;;;;;;;14.60;3.97;;;;;;;4.36;59.94;92496.16;2044492;70;20146;-71
2022/02/18 05:28:07;;;;;;;11.00;3.40;;;;;;;4.39;59.93;92506.16;2044548;70;20147;-72
2022/02/18 05:30:33;;;;;;;9.20;3.40;;;;;;;4.54;58.83;92508.78;2043910;70;20266;-72
2022/02/18 05:32:59;;;;;;;8.30;3.35;;;;;;;4.64;58.08;92511.63;2044383;70;20166;-70
2022/02/18 05:35:24;;;;;;;9.65;5.80;;;;;;;4.14;60.15;92506.25;2044965;70;20173;-71
2022/02/18 05:37:50;;;;;;;10.90;5.03;;;;;;;3.98;60.93;92509.19;2047787;70;20155;-74
2022/02/18 05:40:16;;;;;;;14.82;5.85;;;;;;;4.24;59.81;92499.44;2047810;70;20146;-70
2022/02/18 05:42:42;;;;;;;18.50;8.70;;;;;;;4.33;59.48;92495.25;2047658;70;20150;-70
2022/02/18 05:45:10;;;;;;;18.73;10.10;;;;;;;4.24;59.63;92501.50;2047769;70;20146;-71
2022/02/18 05:47:38;;;;;;;13.50;7.28;;;;;;;4.17;59.64;92503.06;2047655;70;20301;-72
2022/02/18 05:50:09;;;;;;;17.92;5.55;;;;;;;4.10;59.50;92500.34;2047847;70;20154;-70
2022/02/18 05:52:35;;;;;;;9.90;4.10;;;;;;;4.36;59.03;92496.91;2047451;70;20587;-71
2022/02/18 05:55:02;;;;;;;15.65;7.85;;;;;;;4.26;59.96;92488.47;2047909;70;20157;-75
2022/02/18 05:57:28;;;;;;;19.05;9.40;;;;;;;4.19;59.44;92492.06;2046416;70;20634;-72
2022/02/18 05:59:54;;;;;;;26.27;15.43;;;;;;;4.22;59.54;92499.28;2044791;70;20166;-71
2022/02/18 06:02:19;;;;;;;16.80;9.05;;;;;;;4.31;59.23;92489.53;2047848;70;20161;-72
2022/02/18 06:04:45;;;;;;;11.10;6.47;;;;;;;4.33;59.55;92490.41;2047807;70;20610;-72
2022/02/18 06:07:10;;;;;;;11.07;3.67;;;;;;;4.54;58.42;92472.53;2047991;70;20143;-71
2022/02/18 06:09:36;;;;;;;14.80;5.47;;;;;;;4.43;59.13;92479.34;2047935;70;20138;-73
2022/02/18 06:12:02;;;;;;;27.23;14.25;;;;;;;4.19;60.06;92489.28;2047873;70;20205;-72
2022/02/18 06:14:28;;;;;;;16.45;9.00;;;;;;;4.32;59.55;92469.44;2044666;70;20186;-73
2022/02/18 06:16:53;;;;;;;18.23;7.15;;;;;;;4.10;60.57;92484.38;2047818;70;20127;-73
2022/02/18 06:19:19;;;;;;;24.63;14.98;;;;;;;3.85;61.44;92500.41;2044612;70;20181;-72
2022/02/18 06:21:44;;;;;;;11.77;6.57;;;;;;;4.33;60.13;92503.63;2047917;70;20155;-72
2022/02/18 06:24:10;;;;;;;13.38;5.50;;;;;;;4.30;60.40;92510.34;2047980;70;20159;-72
2022/02/18 06:26:36;;;;;;;11.57;5.35;;;;;;;4.44;59.50;92489.16;2048022;70;20480;-73
2022/02/18 06:29:02;;;;;;;9.55;4.40;;;;;;;4.47;59.41;92504.00;2047493;70;20198;-72
2022/02/18 06:31:28;;;;;;;9.85;4.40;;;;;;;4.62;58.86;92511.44;2048338;70;20170;-70
2022/02/18 06:33:54;;;;;;;11.38;4.82;;;;;;;4.42;60.17;92511.31;2048362;70;20533;-74
2022/02/18 06:36:20;;;;;;;13.00;4.05;;;;;;;4.60;59.36;92517.59;2048532;70;20610;-72
2022/02/18 06:38:45;;;;;;;13.55;4.97;;;;;;;4.45;59.47;92532.47;2048362;70;20162;-72
2022/02/18 06:41:12;;;;;;;9.20;4.75;;;;;;;4.42;60.22;92527.31;2048329;70;20165;-72
2022/02/18 06:43:38;;;;;;;17.02;5.50;;;;;;;4.61;59.43;92521.13;2048689;70;20216;-72
2022/02/18 06:46:04;;;;;;;9.95;5.75;;;;;;;4.61;59.75;92505.13;2048171;70;20253;-72
2022/02/18 06:48:30;;;;;;;11.18;4.80;;;;;;;4.74;59.24;92510.34;2048571;70;20483;-73
2022/02/18 06:50:55;;;;;;;11.32;4.40;;;;;;;4.81;59.18;92490.00;2048420;70;20165;-73
2022/02/18 06:53:21;;;;;;;9.02;4.20;;;;;;;4.79;59.31;92486.31;2048380;70;20158;-74
2022/02/18 06:55:47;;;;;;;13.35;5.20;;;;;;;4.17;62.08;92507.88;2048247;70;20158;-76
2022/02/18 06:58:13;;;;;;;16.90;6.30;;;;;;;4.24;62.26;92502.22;2048452;70;20196;-76
2022/02/18 07:00:39;;;;;;;14.02;6.05;;;;;;;4.64;60.56;92483.72;2048285;70;20197;-74
2022/02/18 07:03:07;;;;;;;13.57;5.88;;;;;;;4.58;60.71;92476.38;2048230;70;20159;-72
2022/02/18 07:05:33;;;;;;;11.70;5.00;;;;;;;4.84;60.01;92483.25;2048487;70;20263;-72
2022/02/18 07:08:00;;;;;;;13.93;4.10;;;;;;;4.93;59.71;92469.94;2047766;70;20158;-72
2022/02/18 07:10:28;;;;;;;11.88;5.47;;;;;;;4.77;60.60;92489.69;2048392;70;20163;-72
2022/02/18 07:12:59;;;;;;;12.48;5.60;;;;;;;4.95;59.18;92492.41;2048458;70;20185;-72
2022/02/18 07:15:25;;;;;;;14.73;6.00;;;;;;;4.79;59.63;92481.47;2048124;70;20180;-73
2022/02/18 07:17:51;;;;;;;13.23;5.88;;;;;;;4.55;59.64;92488.66;2045044;70;20495;-72
2022/02/18 07:20:17;;;;;;;14.00;6.20;;;;;;;4.66;59.63;92506.19;2048537;70;20613;-73
2022/02/18 07:22:44;;;;;;;16.40;6.80;;;;;;;4.91;59.55;92501.22;2048224;70;20141;-72
2022/02/18 07:25:10;;;;;;;15.05;6.10;;;;;;;4.98;59.33;92508.72;2048366;70;20151;-72
2022/02/18 07:27:36;;;;;;;16.35;6.82;;;;;;;5.06;59.54;92503.78;2048392;70;20161;-73
2022/02/18 07:30:04;;;;;;;12.88;5.57;;;;;;;5.28;58.80;92501.25;2048339;70;20154;-73
2022/02/18 07:32:30;;;;;;;9.82;3.80;;;;;;;5.28;59.36;92487.28;2048318;70;20634;-74
2022/02/18 07:34:55;;;;;;;12.73;6.50;;;;;;;5.57;57.21;92490.16;2048332;70;20242;-73
2022/02/18 07:37:21;;;;;;;28.33;14.45;;;;;;;5.36;58.37;92496.28;2048554;70;20147;-74
2022/02/18 07:39:47;;;;;;;25.10;11.35;;;;;;;5.48;58.66;92493.66;2048346;70;20155;-71
2022/02/18 07:42:12;;;;;;;22.58;10.02;;;;;;;5.60;58.08;92483.41;2048301;70;20154;-72
2022/02/18 07:44:38;;;;;;;21.27;9.02;;;;;;;5.43;58.09;92503.03;2048308;70;20182;-72
2022/02/18 07:47:05;;;;;;;18.63;8.63;;;;;;;5.80;57.48;92512.13;2048392;70;20198;-73
2022/02/18 07:49:31;;;;;;;15.23;7.60;;;;;;;5.79;57.74;92491.09;2045072;70;20177;-72
2022/02/18 07:51:56;;;;;;;16.00;8.93;;;;;;;5.57;57.54;92523.66;2048304;70;20595;-72
2022/02/18 07:54:22;;;;;;;19.85;9.15;;;;;;;5.82;56.88;92513.00;2050074;70;20217;-72
2022/02/18 07:56:48;;;;;;;18.25;7.80;;;;;;;5.97;56.03;92514.84;2049490;70;20281;-72
2022/02/18 07:59:14;;;;;;;15.70;6.93;;;;;;;5.95;55.27;92514.66;2051660;70;20589;-72
2022/02/18 08:01:42;;;;;;;25.75;10.63;;;;;;;5.69;57.15;92513.44;2051462;70;20155;-81
2022/02/18 08:04:07;;;;;;;23.17;10.63;;;;;;;5.93;55.57;92491.44;2051729;70;20158;-73
2022/02/18 08:06:33;;;;;;;22.95;10.20;;;;;;;5.63;58.34;92485.03;2051760;70;20514;-71
2022/02/18 08:09:00;;;;;;;21.27;7.80;;;;;;;5.10;59.86;92486.63;2051784;70;20250;-72
2022/02/18 08:11:25;;;;;;;16.70;8.07;;;;;;;5.76;57.94;92467.13;2048396;70;20190;-71
2022/02/18 08:13:51;;;;;;;19.05;7.68;;;;;;;6.15;56.90;92476.31;2045714;70;20247;-70
2022/02/18 08:16:17;;;;;;;13.63;6.57;;;;;;;6.06;57.64;92472.19;2051311;70;20161;-74
2022/02/18 08:18:44;;;;;;;15.93;7.95;;;;;;;6.03;57.02;92453.06;2049696;70;20170;-72
2022/02/18 08:21:11;;;;;;;18.90;7.72;;;;;;;6.30;57.15;92466.91;2049605;70;20244;-73
2022/02/18 08:23:37;;;;;;;17.55;8.13;;;;;;;6.15;57.26;92467.19;2050811;70;20173;-75
2022/02/18 08:26:03;;;;;;;18.80;9.20;;;;;;;6.33;57.45;92443.38;2051520;70;20885;-74
2022/02/18 08:28:28;;;;;;;16.92;8.68;;;;;;;6.59;55.84;92427.72;2051520;70;20178;-71
2022/02/18 08:30:54;;;;;;;17.70;9.18;;;;;;;5.93;57.36;92446.75;2050692;70;20162;-70
2022/02/18 08:33:20;;;;;;;23.45;8.95;;;;;;;5.89;58.45;92435.25;2048444;70;20158;-72
2022/02/18 08:35:46;;;;;;;16.25;8.00;;;;;;;6.48;56.37;92419.94;2048392;70;20158;-72
2022/02/18 08:38:12;;;;;;;15.50;6.40;;;;;;;6.72;55.22;92421.66;2048648;70;20186;-74
2022/02/18 08:40:38;;;;;;;15.55;6.22;;;;;;;6.33;55.87;92427.31;2047746;70;20575;-72
2022/02/18 08:43:03;;;;;;;13.95;5.85;;;;;;;6.78;55.61;92426.94;2048079;70;20172;-73
2022/02/18 08:45:31;;;;;;;18.35;6.80;;;;;;;5.96;57.94;92431.59;2048333;70;20166;-71
2022/02/18 08:47:57;;;;;;;27.60;12.25;;;;;;;6.49;56.21;92422.13;2048267;70;20138;-71
2022/02/18 08:50:25;;;;;;;22.20;10.00;;;;;;;6.79;55.75;92414.44;2048395;70;20154;-72
2022/02/18 08:52:51;;;;;;;15.75;8.10;;;;;;;7.08;54.96;92405.91;2050428;70;20150;-72
2022/02/18 08:55:19;;;;;;;14.50;6.78;;;;;;;7.24;54.75;92398.63;2048478;70;20494;-71
2022/02/18 08:57:46;;;;;;;16.63;6.93;;;;;;;7.13;54.21;92394.41;2048505;70;20631;-73
2022/02/18 09:00:14;;;;;;;10.48;4.22;;;;;;;7.11;53.68;92394.28;2048349;70;20189;-73
2022/02/18 09:02:41;;;;;;;7.45;3.17;;;;;;;7.30;53.05;92396.25;2048409;70;20625;-74
2022/02/18 09:05:08;;;;;;;7.57;3.75;;;;;;;7.59;52.88;92398.13;2048454;70;20145;-73
2022/02/18 09:07:33;;;;;;;8.50;4.30;;;;;;;7.75;52.89;92390.09;2048467;70;20218;-73
2022/02/18 09:10:01;;;;;;;8.70;3.95;;;;;;;7.94;51.94;92401.16;2045384;70;20149;-73
2022/02/18 09:12:27;;;;;;;15.27;4.50;;;;;;;7.44;52.88;92399.25;2050681;70;20166;-73
2022/02/18 09:14:52;;;;;;;15.52;4.50;;;;;;;7.58;52.84;92383.41;2048468;70;20189;-71
2022/02/18 09:17:31;;;;;;;12.95;4.68;;;;;;;7.88;52.21;92376.28;2048321;70;20267;-72
2022/02/18 09:19:58;;;;;;;18.15;4.80;;;;;;;7.05;53.51;92373.50;2048567;70;20153;-73
2022/02/18 09:22:25;;;;;;;14.35;4.70;;;;;;;7.22;53.56;92355.75;2048495;70;20195;-73
2022/02/18 09:24:51;;;;;;;9.27;4.05;;;;;;;7.70;52.53;92338.66;2048455;70;20210;-73
2022/02/18 09:27:17;;;;;;;11.02;4.47;;;;;;;8.03;52.33;92338.69;2048453;70;20610;-72
2022/02/18 09:29:43;;;;;;;18.98;4.28;;;;;;;8.05;52.17;92332.47;2048483;70;20139;-72
2022/02/18 09:32:10;;;;;;;10.77;4.80;;;;;;;8.39;51.25;92333.94;2048447;70;20605;-72
2022/02/18 09:34:36;;;;;;;14.57;5.85;;;;;;;8.53;50.90;92336.91;2048585;70;20150;-73
2022/02/18 09:37:04;;;;;;;13.65;4.40;;;;;;;7.74;51.58;92336.09;2048451;70;20240;-76
2022/02/18 09:39:30;;;;;;;10.30;4.30;;;;;;;8.35;51.62;92325.97;2048596;70;20142;-74
2022/02/18 09:41:56;;;;;;;11.40;4.30;;;;;;;8.35;50.77;92342.81;2047776;70;20185;-73
2022/02/18 09:44:25;;;;;;;14.10;6.25;;;;;;;8.10;51.86;92336.97;2047836;70;20226;-71
2022/02/18 09:46:52;;;;;;;11.25;5.72;;;;;;;8.75;51.00;92326.31;2048014;70;20176;-73
2022/02/18 09:49:18;;;;;;;13.20;6.10;;;;;;;8.14;52.13;92337.25;2048353;70;20150;-71
2022/02/18 09:51:45;;;;;;;19.10;8.63;;;;;;;8.67;51.55;92332.16;2048343;70;20173;-73
2022/02/18 09:54:11;;;;;;;15.07;6.82;;;;;;;8.92;50.02;92306.31;2048623;70;20143;-72
2022/02/18 09:56:42;;;;;;;12.07;4.88;;;;;;;9.07;50.41;92308.63;2048148;70;20249;-73
2022/02/18 09:59:10;;;;;;;16.15;6.97;;;;;;;9.32;49.54;92312.88;2048163;70;20599;-74
2022/02/18 10:01:36;;;;;;;24.90;10.25;;;;;;;8.52;51.26;92313.72;2048087;70;20150;-73
2022/02/18 10:04:02;;;;;;;12.23;6.05;;;;;;;8.61;51.67;92321.31;2048210;70;20166;-71
2022/02/18 10:06:29;;;;;;;13.50;4.70;;;;;;;9.11;50.80;92317.28;2048349;70;20695;-72
2022/02/18 10:08:55;;;;;;;14.07;5.35;;;;;;;9.24;50.00;92298.34;2048326;70;20602;-72
2022/02/18 10:11:22;;;;;;;13.55;6.50;;;;;;;9.06;50.77;92295.19;2048171;70;20144;-72
2022/02/18 10:13:47;;;;;;;13.63;7.85;;;;;;;9.67;49.93;92274.22;2048322;70;20170;-73
2022/02/18 10:16:20;;;;;;;15.25;6.47;;;;;;;9.89;49.78;92271.91;2048191;70;20217;-78
2022/02/18 10:18:54;;;;;;;14.38;4.32;;;;;;;10.24;48.16;92281.53;2048374;70;20143;-77
2022/02/18 10:21:21;;;;;;;9.18;4.80;;;;;;;10.42;48.17;92257.97;2048476;70;20135;-77
2022/02/18 10:23:47;;;;;;;7.20;3.67;;;;;;;10.92;46.63;92266.94;2048474;70;20189;-75
2022/02/18 10:26:13;;;;;;;9.63;3.95;;;;;;;11.39;46.17;92264.41;2048585;70;20179;-72
2022/02/18 10:28:39;;;;;;;12.60;4.75;;;;;;;11.87;45.74;92259.78;2048344;70;20264;-73
2022/02/18 10:31:07;;;;;;;12.40;5.43;;;;;;;10.85;44.01;92265.88;2048237;70;20139;-74
2022/02/18 10:33:37;;;;;;;12.25;4.53;;;;;;;11.97;43.67;92244.72;2048297;70;20210;-72
2022/02/18 10:36:06;;;;;;;15.15;6.60;;;;;;;12.72;42.33;92243.31;2048255;70;20158;-73
2022/02/18 10:38:37;;;;;;;11.43;3.63;;;;;;;12.55;41.36;92241.09;2048477;70;20206;-75
2022/02/18 10:41:16;;;;;;;16.10;7.53;;;;;;;12.49;41.56;92226.72;2048314;70;20241;-73
2022/02/18 10:43:45;;;;;;;8.93;4.10;;;;;;;12.75;39.41;92226.47;2048278;70;20151;-73
2022/02/18 10:46:11;;;;;;;10.07;2.70;;;;;;;13.97;39.64;92217.53;2048147;70;20134;-73
2022/02/18 10:48:48;;;;;;;8.52;3.08;;;;;;;13.92;37.92;92213.09;2048285;70;20146;-72
2022/02/18 10:51:19;;;;;;;7.95;3.38;;;;;;;13.67;36.07;92214.94;2048244;70;20135;-73
2022/02/18 10:53:49;;;;;;;9.85;3.55;;;;;;;13.35;38.67;92203.00;2048400;70;20158;-73
2022/02/18 10:56:18;;;;;;;10.32;4.80;;;;;;;11.60;40.30;92211.91;2048310;70;20207;-75
2022/02/18 10:58:48;;;;;;;6.97;3.40;;;;;;;12.38;39.77;92191.66;2048391;70;20178;-74
2022/02/18 11:01:23;;;;;;;8.05;3.00;;;;;;;13.30;38.37;92184.41;2048144;70;20178;-74
2022/02/18 11:03:59;;;;;;;6.05;2.75;;;;;;;12.82;37.08;92199.94;2048277;70;20146;-74
2022/02/18 11:06:28;;;;;;;7.47;2.92;;;;;;;13.48;38.18;92184.44;2048210;70;20191;-74
2022/02/18 11:09:01;;;;;;;7.25;3.75;;;;;;;12.79;37.56;92182.19;2048256;70;20208;-78
2022/02/18 11:11:46;;;;;;;12.80;3.90;;;;;;;13.46;38.90;92176.59;2048296;70;20186;-77
2022/02/18 11:14:14;;;;;;;8.45;2.97;;;;;;;13.44;38.48;92156.00;2048320;70;20579;-75
2022/02/18 11:16:42;;;;;;;7.82;2.72;;;;;;;13.48;36.67;92142.75;2048752;70;20226;-74
2022/02/18 11:19:08;;;;;;;9.18;2.97;;;;;;;14.52;36.76;92160.25;2048741;70;20607;-74
2022/02/18 11:21:34;;;;;;;10.38;2.53;;;;;;;15.28;35.78;92151.66;2048790;70;20175;-74
2022/02/18 11:24:03;;;;;;;5.80;2.70;;;;;;;14.69;36.25;92136.09;2050943;70;20151;-74
2022/02/18 11:26:31;;;;;;;5.18;2.20;;;;;;;13.99;34.27;92133.47;2048709;70;20229;-72
2022/02/18 11:29:02;;;;;;;5.47;2.10;;;;;;;14.05;33.54;92132.25;2048733;70;20147;-74
2022/02/18 11:32:10;;;;;;;6.60;2.53;;;;;;;13.90;35.30;92131.69;2048550;70;20535;-74
2022/02/18 11:35:10;;;;;;;7.00;2.70;;;;;;;13.70;35.78;92113.94;2040862;70;20159;-75
2022/02/18 11:37:44;;;;;;;6.03;2.70;;;;;;;13.02;35.50;92118.19;2033827;70;20158;-75
2022/02/18 11:40:32;;;;;;;5.05;2.10;;;;;;;13.22;36.10;92107.75;2038209;70;20151;-76